createdAt,value
2019-05-30T00:00:28.178Z,0.90
2019-05-30T00:02:56.715Z,1.10
2019-05-30T00:05:23.363Z,1.03
2019-05-30T00:07:49.910Z,1.17
2019-05-30T00:10:18.405Z,0.93
2019-05-30T00:12:44.772Z,1.20
2019-05-30T00:15:11.460Z,1.00
2019-05-30T00:17:37.965Z,1.27
2019-05-30T00:20:06.005Z,1.30
2019-05-30T00:22:32.529Z,1.20
2019-05-30T00:25:00.037Z,1.20
2019-05-30T00:27:26.544Z,1.10
2019-05-30T00:29:53.184Z,0.87
2019-05-30T00:32:19.678Z,0.93
2019-05-30T00:34:48.059Z,1.10
2019-05-30T00:37:14.707Z,0.70
2019-05-30T00:39:41.251Z,0.97
2019-05-30T00:42:07.813Z,1.10
2019-05-30T00:44:34.388Z,1.10
2019-05-30T00:47:02.312Z,1.30
2019-05-30T00:49:28.950Z,1.00
2019-05-30T00:51:56.434Z,1.13
2019-05-30T00:54:22.959Z,1.00
2019-05-30T00:56:49.765Z,0.90
2019-05-30T00:59:16.328Z,1.07
2019-05-30T01:01:42.705Z,1.27
2019-05-30T01:04:09.090Z,1.23
2019-05-30T01:06:35.665Z,1.70
2019-05-30T01:09:03.150Z,1.00
2019-05-30T01:11:29.577Z,1.13
2019-05-30T01:13:57.028Z,1.60
2019-05-30T01:16:23.433Z,1.57
2019-05-30T01:18:50.026Z,1.50
2019-05-30T01:21:16.856Z,1.33
2019-05-30T01:23:43.346Z,1.53
2019-05-30T01:26:09.995Z,1.40
2019-05-30T01:28:36.599Z,1.50
2019-05-30T01:31:08.091Z,1.40
2019-05-30T01:33:31.475Z,1.60
2019-05-30T01:35:57.935Z,1.30
2019-05-30T01:38:24.350Z,1.70
2019-05-30T01:40:50.979Z,1.30
2019-05-30T01:43:17.686Z,1.20
2019-05-30T01:45:44.131Z,1.30
2019-05-30T01:48:10.922Z,2.17
2019-05-30T01:50:37.274Z,1.30
2019-05-30T01:53:04.654Z,1.13
2019-05-30T01:55:31.274Z,1.40
2019-05-30T01:57:58.745Z,1.13
2019-05-30T02:00:31.798Z,1.37
2019-05-30T02:02:58.840Z,1.13
2019-05-30T02:05:25.388Z,1.40
2019-05-30T02:07:51.835Z,1.23
2019-05-30T02:10:18.498Z,1.10
2019-05-30T02:12:45.134Z,1.00
2019-05-30T02:15:12.920Z,1.07
2019-05-30T02:17:39.436Z,1.20
2019-05-30T02:20:06.308Z,1.03
2019-05-30T02:22:32.920Z,1.43
2019-05-30T02:24:59.723Z,1.00
2019-05-30T02:27:26.142Z,1.30
2019-05-30T02:29:52.683Z,1.50
2019-05-30T02:32:19.196Z,1.03
2019-05-30T02:34:45.890Z,1.33
2019-05-30T02:37:12.949Z,0.90
2019-05-30T02:39:39.453Z,0.97
2019-05-30T02:42:07.365Z,1.27
2019-05-30T02:44:33.815Z,1.20
2019-05-30T02:47:01.414Z,1.30
2019-05-30T02:49:28.367Z,0.87
2019-05-30T02:51:55.315Z,1.20
2019-05-30T02:54:21.859Z,1.40
2019-05-30T02:56:48.349Z,1.27
2019-05-30T02:59:14.743Z,0.80
2019-05-30T03:01:59.179Z,1.13
2019-05-30T03:04:11.011Z,1.00
2019-05-30T03:06:38.021Z,1.17
2019-05-30T03:09:06.830Z,2.03
2019-05-30T03:11:34.600Z,1.33
2019-05-30T03:14:02.131Z,1.47
2019-05-30T03:16:29.638Z,1.10
2019-05-30T03:18:56.148Z,1.50
2019-05-30T03:21:22.651Z,1.10
2019-05-30T03:23:49.341Z,1.00
2019-05-30T03:26:16.310Z,0.90
2019-05-30T03:28:43.007Z,1.40
2019-05-30T03:31:21.240Z,1.30
2019-05-30T03:33:42.024Z,1.37
2019-05-30T03:36:18.828Z,1.33
2019-05-30T03:38:34.911Z,0.90
2019-05-30T03:41:01.377Z,1.20
2019-05-30T03:43:27.900Z,1.17
2019-05-30T03:45:54.472Z,1.33
2019-05-30T03:48:22.353Z,1.20
2019-05-30T03:50:52.047Z,0.90
2019-05-30T03:53:18.648Z,1.30
2019-05-30T03:55:48.809Z,1.10
2019-05-30T03:58:39.791Z,1.07
2019-05-30T04:01:12.527Z,1.10
2019-05-30T04:03:57.770Z,1.10
2019-05-30T04:06:30.589Z,1.20
2019-05-30T04:09:00.657Z,1.00
2019-05-30T04:11:56.402Z,1.37
2019-05-30T04:14:24.893Z,1.20
2019-05-30T04:16:51.322Z,1.77
2019-05-30T04:19:20.088Z,1.40
2019-05-30T04:21:47.364Z,1.40
2019-05-30T04:24:14.592Z,1.30
2019-05-30T04:26:42.227Z,1.20
2019-05-30T04:29:09.846Z,1.20
2019-05-30T04:31:36.442Z,1.07
2019-05-30T04:34:02.941Z,1.23
2019-05-30T04:36:29.319Z,1.00
2019-05-30T04:38:55.689Z,1.50
2019-05-30T04:41:21.982Z,0.90
2019-05-30T04:43:48.522Z,1.23
2019-05-30T04:46:17.296Z,1.13
2019-05-30T04:48:43.432Z,1.40
2019-05-30T04:51:10.327Z,1.50
2019-05-30T04:53:38.244Z,0.90
2019-05-30T04:56:05.039Z,1.00
2019-05-30T04:58:31.438Z,1.03
2019-05-30T05:00:57.938Z,1.60
2019-05-30T05:03:44.348Z,1.00
2019-05-30T05:05:52.711Z,1.47
2019-05-30T05:08:19.959Z,1.20
2019-05-30T05:10:46.493Z,1.30
2019-05-30T05:13:14.137Z,1.40
2019-05-30T05:15:40.707Z,1.23
2019-05-30T05:18:07.342Z,1.30
2019-05-30T05:20:36.191Z,1.50
2019-05-30T05:23:02.147Z,1.20
2019-05-30T05:25:28.637Z,2.13
2019-05-30T05:27:55.133Z,1.60
2019-05-30T05:30:22.481Z,1.40
2019-05-30T05:32:48.982Z,1.03
2019-05-30T05:35:16.744Z,1.00
2019-05-30T05:37:43.249Z,1.20
2019-05-30T05:40:10.367Z,1.33
2019-05-30T05:42:36.870Z,1.43
2019-05-30T05:45:05.296Z,1.10
2019-05-30T05:47:31.707Z,1.00
2019-05-30T05:49:58.190Z,1.50
2019-05-30T05:52:24.898Z,1.07
2019-05-30T05:54:51.539Z,1.40
2019-05-30T05:57:18.873Z,1.40
2019-05-30T05:59:45.552Z,1.33
2019-05-30T06:02:12.084Z,1.40
2019-05-30T06:04:38.698Z,1.67
2019-05-30T06:07:05.183Z,1.00
2019-05-30T06:09:31.574Z,1.40
2019-05-30T06:11:58.081Z,1.30
2019-05-30T06:14:26.132Z,1.67
2019-05-30T06:16:55.748Z,1.20
2019-05-30T06:19:21.212Z,1.33
2019-05-30T06:21:53.867Z,1.37
2019-05-30T06:24:17.535Z,1.07
2019-05-30T06:26:44.154Z,1.20
2019-05-30T06:29:10.850Z,1.00
2019-05-30T06:31:37.249Z,1.27
2019-05-30T06:34:03.816Z,1.27
2019-05-30T06:36:30.166Z,1.00
2019-05-30T06:38:56.705Z,1.40
2019-05-30T06:41:23.539Z,1.50
2019-05-30T06:43:50.167Z,1.00
2019-05-30T06:46:16.841Z,1.10
2019-05-30T06:48:43.332Z,1.50
2019-05-30T06:51:09.735Z,2.03
2019-05-30T06:53:36.354Z,1.37
2019-05-30T06:56:02.901Z,1.23
2019-05-30T06:58:45.579Z,1.00
2019-05-30T07:00:57.672Z,0.97
2019-05-30T07:03:24.409Z,1.33
2019-05-30T07:05:51.622Z,1.00
2019-05-30T07:08:18.715Z,1.43
2019-05-30T07:10:46.225Z,1.30
2019-05-30T07:13:12.847Z,1.30
2019-05-30T07:15:39.332Z,1.23
2019-05-30T07:18:06.880Z,1.23
2019-05-30T07:20:33.806Z,1.23
2019-05-30T07:23:00.284Z,1.43
2019-05-30T07:25:27.895Z,1.47
2019-05-30T07:27:54.241Z,1.50
2019-05-30T07:30:20.846Z,1.33
2019-05-30T07:32:47.417Z,1.37
2019-05-30T07:35:14.130Z,1.50
2019-05-30T07:37:40.436Z,2.03
2019-05-30T07:40:07.855Z,1.50
2019-05-30T07:42:34.964Z,1.60
2019-05-30T07:45:01.542Z,1.50
2019-05-30T07:47:28.133Z,1.70
2019-05-30T07:49:54.630Z,1.50
2019-05-30T07:52:21.222Z,1.30
2019-05-30T07:54:47.931Z,1.87
2019-05-30T07:57:14.455Z,1.30
2019-05-30T07:59:40.953Z,1.93
2019-05-30T08:02:07.577Z,2.23
2019-05-30T08:04:34.178Z,1.30
2019-05-30T08:07:00.527Z,1.60
2019-05-30T08:09:27.001Z,1.53
2019-05-30T08:11:53.487Z,1.47
2019-05-30T08:14:20.152Z,1.40
2019-05-30T08:16:46.610Z,1.73
2019-05-30T08:19:13.189Z,1.40
2019-05-30T08:21:39.662Z,1.10
2019-05-30T08:24:06.136Z,1.73
2019-05-30T08:26:32.739Z,1.50
2019-05-30T08:28:59.204Z,1.57
2019-05-30T08:31:25.849Z,1.20
2019-05-30T08:33:52.403Z,1.17
2019-05-30T08:36:18.939Z,1.23
2019-05-30T08:38:48.140Z,1.00
2019-05-30T08:41:14.306Z,1.27
2019-05-30T08:43:40.881Z,1.40
2019-05-30T08:46:07.389Z,1.13
2019-05-30T08:48:34.583Z,1.30
2019-05-30T08:51:01.214Z,1.50
2019-05-30T08:53:27.678Z,1.43
2019-05-30T08:55:54.227Z,1.37
2019-05-30T08:58:20.737Z,1.73
2019-05-30T09:00:47.330Z,1.50
2019-05-30T09:03:13.861Z,1.43
2019-05-30T09:05:58.191Z,1.53
2019-05-30T09:08:12.784Z,1.50
2019-05-30T09:10:39.521Z,1.40
2019-05-30T09:13:07.198Z,1.30
2019-05-30T09:15:33.673Z,1.60
2019-05-30T09:18:00.143Z,1.53
2019-05-30T09:20:26.677Z,1.70
2019-05-30T09:22:53.155Z,1.77
2019-05-30T09:25:20.209Z,1.93
2019-05-30T09:27:46.822Z,1.50
2019-05-30T09:30:16.070Z,1.20
2019-05-30T09:32:43.232Z,1.23
2019-05-30T09:35:10.337Z,1.47
2019-05-30T09:37:38.702Z,2.57
2019-05-30T09:40:09.146Z,1.20
2019-05-30T09:42:35.540Z,1.63
2019-05-30T09:45:02.236Z,1.63
2019-05-30T09:47:28.830Z,1.33
2019-05-30T09:49:55.194Z,1.83
2019-05-30T09:52:21.888Z,1.60
2019-05-30T09:54:48.349Z,1.87
2019-05-30T09:57:14.711Z,1.90
2019-05-30T09:59:41.766Z,1.10
2019-05-30T10:02:09.587Z,1.40
2019-05-30T10:04:36.129Z,3.77
2019-05-30T10:07:02.608Z,1.50
2019-05-30T10:09:29.189Z,1.60
2019-05-30T10:11:55.753Z,1.57
2019-05-30T10:14:22.258Z,1.87
2019-05-30T10:16:54.255Z,1.10
2019-05-30T10:19:18.843Z,1.87
2019-05-30T10:21:45.971Z,1.30
2019-05-30T10:24:13.299Z,1.83
2019-05-30T10:26:40.669Z,1.80
2019-05-30T10:29:07.186Z,1.23
2019-05-30T10:31:33.642Z,2.00
2019-05-30T10:34:00.025Z,1.87
2019-05-30T10:36:26.474Z,1.30
2019-05-30T10:38:53.935Z,1.40
2019-05-30T10:41:20.508Z,1.40
2019-05-30T10:43:47.427Z,1.77
2019-05-30T10:46:14.053Z,1.60
2019-05-30T10:48:40.533Z,1.27
2019-05-30T10:51:06.978Z,1.37
2019-05-30T10:53:36.455Z,1.20
2019-05-30T10:56:01.432Z,1.30
2019-05-30T10:58:27.845Z,1.40
2019-05-30T11:00:57.559Z,1.40
2019-05-30T11:03:27.476Z,1.43
2019-05-30T11:05:57.677Z,1.37
2019-05-30T11:08:27.318Z,1.50
2019-05-30T11:10:54.839Z,1.43
2019-05-30T11:13:21.389Z,1.50
2019-05-30T11:15:48.761Z,1.67
2019-05-30T11:18:15.876Z,2.23
2019-05-30T11:20:42.122Z,1.10
2019-05-30T11:23:08.903Z,0.93
2019-05-30T11:25:35.544Z,2.30
2019-05-30T11:28:03.547Z,1.30
2019-05-30T11:30:30.525Z,1.47
2019-05-30T11:32:57.311Z,1.50
2019-05-30T11:35:23.821Z,1.70
2019-05-30T11:37:51.046Z,1.13
2019-05-30T11:40:17.629Z,1.67
2019-05-30T11:42:44.152Z,1.30
2019-05-30T11:45:10.653Z,1.47
2019-05-30T11:47:37.139Z,1.37
2019-05-30T11:50:05.582Z,1.60
2019-05-30T11:52:32.227Z,1.50
2019-05-30T11:54:58.731Z,1.40
2019-05-30T11:57:25.366Z,1.40
2019-05-30T11:59:52.166Z,1.50
2019-05-30T12:02:18.672Z,1.40
2019-05-30T12:04:45.311Z,1.60
2019-05-30T12:07:11.901Z,3.83
2019-05-30T12:09:38.576Z,1.40
2019-05-30T12:12:05.335Z,1.80
2019-05-30T12:14:31.791Z,1.40
2019-05-30T12:16:59.408Z,1.30
2019-05-30T12:19:26.011Z,1.10
2019-05-30T12:21:53.565Z,1.73
2019-05-30T12:24:20.014Z,1.13
2019-05-30T12:26:46.382Z,1.23
2019-05-30T12:29:12.993Z,1.73
2019-05-30T12:31:39.646Z,1.63
2019-05-30T12:34:06.126Z,1.60
2019-05-30T12:36:32.628Z,2.13
2019-05-30T12:38:59.108Z,1.40
2019-05-30T12:41:25.601Z,1.50
2019-05-30T12:43:52.984Z,1.60
2019-05-30T12:46:19.397Z,2.13
2019-05-30T12:48:45.901Z,1.30
2019-05-30T12:51:12.369Z,1.50
2019-05-30T12:53:38.926Z,1.40
2019-05-30T12:56:06.788Z,1.40
2019-05-30T12:58:33.295Z,1.40
2019-05-30T13:01:00.876Z,1.30
2019-05-30T13:03:27.541Z,1.40
2019-05-30T13:05:55.058Z,1.47
2019-05-30T13:08:22.250Z,1.47
2019-05-30T13:10:48.864Z,1.67
2019-05-30T13:13:15.211Z,2.23
2019-05-30T13:15:41.804Z,1.27
2019-05-30T13:18:08.436Z,1.73
2019-05-30T13:20:34.931Z,1.37
2019-05-30T13:23:02.593Z,1.33
2019-05-30T13:25:29.219Z,1.30
2019-05-30T13:27:55.856Z,2.20
2019-05-30T13:30:22.960Z,1.80
2019-05-30T13:32:49.390Z,2.20
2019-05-30T13:35:15.935Z,2.67
2019-05-30T13:37:42.445Z,1.47
2019-05-30T13:40:24.375Z,1.80
2019-05-30T13:42:39.880Z,1.40
2019-05-30T13:45:08.205Z,1.43
2019-05-30T13:47:35.846Z,1.97
2019-05-30T13:50:09.035Z,1.20
2019-05-30T13:52:32.845Z,2.23
2019-05-30T13:54:59.498Z,1.77
2019-05-30T13:57:26.051Z,1.50
2019-05-30T13:59:52.654Z,1.30
2019-05-30T14:02:19.158Z,2.17
2019-05-30T14:04:45.822Z,1.37
2019-05-30T14:07:12.415Z,1.30
2019-05-30T14:09:38.859Z,2.17
2019-05-30T14:12:06.604Z,1.77
2019-05-30T14:14:33.058Z,2.10
2019-05-30T14:17:00.751Z,2.10
2019-05-30T14:19:27.291Z,1.80
2019-05-30T14:21:53.868Z,1.37
2019-05-30T14:24:20.273Z,1.87
2019-05-30T14:26:46.672Z,1.60
2019-05-30T14:29:13.209Z,1.83
2019-05-30T14:31:39.934Z,1.77
2019-05-30T14:34:06.257Z,2.13
2019-05-30T14:36:32.730Z,1.53
2019-05-30T14:38:59.473Z,1.77
2019-05-30T14:41:26.139Z,1.60
2019-05-30T14:43:52.412Z,1.97
2019-05-30T14:46:19.090Z,1.60
2019-05-30T14:48:45.815Z,1.80
2019-05-30T14:51:12.941Z,1.87
2019-05-30T14:53:39.619Z,2.20
2019-05-30T14:56:06.928Z,2.87
2019-05-30T14:58:33.405Z,2.63
2019-05-30T15:00:59.817Z,2.27
2019-05-30T15:03:26.561Z,1.87
2019-05-30T15:05:53.010Z,1.67
2019-05-30T15:08:20.110Z,1.97
2019-05-30T15:10:46.599Z,1.60
2019-05-30T15:13:13.751Z,1.53
2019-05-30T15:15:40.490Z,1.60
2019-05-30T15:18:07.077Z,1.77
2019-05-30T15:20:33.695Z,2.37
2019-05-30T15:23:00.144Z,2.00
2019-05-30T15:25:26.625Z,1.80
2019-05-30T15:27:53.133Z,2.00
2019-05-30T15:30:20.015Z,1.83
2019-05-30T15:32:46.448Z,1.80
2019-05-30T15:35:13.244Z,1.50
2019-05-30T15:37:40.969Z,1.73
2019-05-30T15:40:08.956Z,1.90
2019-05-30T15:42:35.367Z,2.07
2019-05-30T15:45:03.900Z,1.70
2019-05-30T15:47:30.346Z,2.47
2019-05-30T15:49:56.725Z,2.33
2019-05-30T15:52:23.078Z,1.73
2019-05-30T15:54:49.477Z,1.50
2019-05-30T15:57:15.936Z,2.07
2019-05-30T15:59:42.320Z,2.10
2019-05-30T16:02:09.894Z,1.77
2019-05-30T16:04:36.429Z,1.43
2019-05-30T16:07:03.003Z,1.97
2019-05-30T16:09:29.416Z,1.67
2019-05-30T16:11:55.988Z,2.43
2019-05-30T16:14:22.278Z,1.90
2019-05-30T16:16:48.661Z,1.70
2019-05-30T16:19:21.334Z,1.70
2019-05-30T16:21:43.415Z,2.00
2019-05-30T16:24:09.822Z,1.67
2019-05-30T16:26:36.561Z,2.10
2019-05-30T16:29:03.103Z,1.80
2019-05-30T16:31:29.651Z,2.20
2019-05-30T16:33:56.289Z,1.63
2019-05-30T16:36:22.896Z,1.50
2019-05-30T16:38:49.361Z,2.10
2019-05-30T16:41:16.252Z,1.60
2019-05-30T16:43:42.635Z,1.70
2019-05-30T16:46:09.120Z,1.40
2019-05-30T16:48:35.583Z,1.67
2019-05-30T16:51:02.087Z,2.30
2019-05-30T16:53:28.543Z,1.80
2019-05-30T16:55:55.027Z,2.00
2019-05-30T16:58:22.008Z,2.17
2019-05-30T17:00:48.781Z,2.10
2019-05-30T17:03:15.675Z,1.40
2019-05-30T17:05:42.100Z,2.33
2019-05-30T17:08:08.590Z,2.33
2019-05-30T17:10:35.260Z,2.53
2019-05-30T17:13:01.774Z,2.33
2019-05-30T17:15:28.333Z,2.40
2019-05-30T17:17:55.062Z,2.63
2019-05-30T17:20:22.561Z,2.10
2019-05-30T17:22:48.981Z,1.97
2019-05-30T17:25:15.458Z,2.13
2019-05-30T17:27:42.073Z,1.90
2019-05-30T17:30:10.324Z,2.80
2019-05-30T17:32:36.717Z,2.10
2019-05-30T17:35:06.022Z,1.70
2019-05-30T17:37:32.529Z,2.07
2019-05-30T17:39:59.229Z,2.00
2019-05-30T17:42:26.947Z,3.37
2019-05-30T17:44:53.380Z,2.07
2019-05-30T17:47:19.828Z,2.10
2019-05-30T17:49:46.449Z,2.80
2019-05-30T17:52:13.104Z,2.30
2019-05-30T17:54:42.778Z,2.33
2019-05-30T17:57:08.567Z,1.97
2019-05-30T17:59:37.157Z,2.00
2019-05-30T18:02:03.629Z,2.03
2019-05-30T18:04:30.770Z,2.43
2019-05-30T18:06:57.333Z,2.20
2019-05-30T18:09:24.878Z,1.70
2019-05-30T18:11:53.236Z,2.10
2019-05-30T18:14:20.981Z,2.40
2019-05-30T18:16:47.634Z,1.73
2019-05-30T18:19:14.089Z,2.00
2019-05-30T18:21:42.467Z,1.97
2019-05-30T18:24:08.957Z,1.93
2019-05-30T18:26:35.634Z,1.57
2019-05-30T18:29:02.336Z,1.60
2019-05-30T18:31:30.047Z,1.73
2019-05-30T18:33:56.574Z,1.77
2019-05-30T18:36:24.249Z,1.77
2019-05-30T18:38:50.950Z,2.40
2019-05-30T18:41:17.428Z,1.83
2019-05-30T18:43:44.900Z,2.13
2019-05-30T18:46:11.336Z,1.70
2019-05-30T18:48:37.672Z,2.20
2019-05-30T18:51:06.209Z,1.50
2019-05-30T18:53:32.672Z,2.00
2019-05-30T18:55:59.201Z,1.87
2019-05-30T18:58:26.709Z,1.90
2019-05-30T19:00:53.476Z,1.80
2019-05-30T19:03:20.923Z,2.17
2019-05-30T19:05:48.543Z,1.70
2019-05-30T19:08:15.076Z,2.20
2019-05-30T19:10:41.687Z,2.20
2019-05-30T19:13:08.222Z,1.57
2019-05-30T19:15:34.616Z,1.97
2019-05-30T19:18:00.853Z,2.10
2019-05-30T19:20:27.680Z,1.77
2019-05-30T19:22:54.234Z,2.17
2019-05-30T19:25:20.758Z,2.50
2019-05-30T19:27:47.327Z,2.20
2019-05-30T19:30:14.639Z,2.50
2019-05-30T19:32:41.033Z,2.83
2019-05-30T19:35:07.697Z,2.90
2019-05-30T19:37:35.349Z,2.47
2019-05-30T19:40:03.153Z,2.27
2019-05-30T19:42:29.660Z,2.17
2019-05-30T19:44:56.201Z,1.97
2019-05-30T19:47:22.475Z,1.77
2019-05-30T19:49:49.093Z,2.43
2019-05-30T19:52:15.504Z,2.57
2019-05-30T19:54:42.068Z,2.30
2019-05-30T19:57:09.769Z,2.67
2019-05-30T19:59:36.297Z,1.73
2019-05-30T20:02:02.863Z,2.97
2019-05-30T20:04:30.174Z,2.00
2019-05-30T20:06:56.757Z,1.93
2019-05-30T20:09:23.441Z,2.13
2019-05-30T20:12:02.734Z,2.13
2019-05-30T20:14:18.400Z,2.40
2019-05-30T20:16:47.257Z,2.67
2019-05-30T20:19:13.738Z,2.37
2019-05-30T20:21:42.174Z,2.23
2019-05-30T20:24:09.672Z,2.47
2019-05-30T20:26:36.642Z,2.20
2019-05-30T20:29:05.050Z,2.03
2019-05-30T20:31:31.643Z,2.50
2019-05-30T20:33:58.255Z,2.63
2019-05-30T20:36:24.734Z,2.53
2019-05-30T20:38:51.303Z,2.60
2019-05-30T20:41:18.258Z,2.00
2019-05-30T20:43:44.753Z,2.43
2019-05-30T20:46:22.705Z,2.30
2019-05-30T20:48:41.068Z,3.27
2019-05-30T20:51:20.431Z,2.20
2019-05-30T20:53:37.162Z,2.00
2019-05-30T20:56:03.773Z,2.30
2019-05-30T20:58:30.308Z,2.17
2019-05-30T21:00:56.663Z,2.57
2019-05-30T21:03:23.213Z,2.53
2019-05-30T21:05:49.681Z,2.93
2019-05-30T21:08:16.154Z,2.57
2019-05-30T21:10:43.455Z,3.13
2019-05-30T21:13:10.090Z,3.00
2019-05-30T21:15:37.528Z,2.13
2019-05-30T21:18:04.546Z,2.80
2019-05-30T21:20:31.136Z,2.63
2019-05-30T21:22:57.696Z,1.97
2019-05-30T21:25:24.250Z,2.23
2019-05-30T21:27:50.664Z,2.30
2019-05-30T21:30:17.810Z,2.50
2019-05-30T21:32:48.292Z,2.70
2019-05-30T21:35:15.222Z,3.17
2019-05-30T21:37:41.907Z,2.10
2019-05-30T21:40:08.572Z,2.63
2019-05-30T21:42:35.021Z,2.67
2019-05-30T21:45:01.513Z,2.53
2019-05-30T21:47:27.873Z,2.87
2019-05-30T21:49:54.399Z,2.83
2019-05-30T21:52:20.794Z,1.93
2019-05-30T21:54:47.868Z,2.90
2019-05-30T21:57:14.352Z,2.37
2019-05-30T21:59:42.245Z,2.43
2019-05-30T22:02:09.052Z,2.50
2019-05-30T22:04:35.520Z,2.63
2019-05-30T22:07:02.003Z,2.30
2019-05-30T22:09:28.489Z,2.63
2019-05-30T22:11:54.957Z,2.30
2019-05-30T22:14:21.565Z,2.43
2019-05-30T22:16:48.070Z,2.50
2019-05-30T22:19:14.811Z,2.60
2019-05-30T22:21:41.967Z,2.50
2019-05-30T22:24:08.420Z,2.57
2019-05-30T22:26:34.807Z,2.27
2019-05-30T22:29:01.295Z,2.33
2019-05-30T22:31:27.731Z,2.20
2019-05-30T22:33:54.334Z,2.60
2019-05-30T22:36:20.884Z,2.27
2019-05-30T22:38:47.351Z,2.40
2019-05-30T22:41:13.761Z,2.37
2019-05-30T22:43:40.251Z,1.80
2019-05-30T22:46:06.737Z,2.63
2019-05-30T22:48:33.340Z,2.83
2019-05-30T22:50:59.790Z,2.47
2019-05-30T22:53:26.345Z,2.47
2019-05-30T22:55:53.602Z,2.30
2019-05-30T22:58:20.092Z,2.00
2019-05-30T23:00:47.864Z,2.77
2019-05-30T23:03:14.385Z,2.77
2019-05-30T23:05:40.888Z,2.73
2019-05-30T23:08:07.383Z,2.50
2019-05-30T23:10:33.893Z,2.13
2019-05-30T23:13:00.369Z,2.80
2019-05-30T23:15:26.732Z,2.90
2019-05-30T23:17:53.204Z,2.20
2019-05-30T23:20:19.689Z,3.30
2019-05-30T23:22:48.835Z,2.20
2019-05-30T23:25:15.477Z,2.53
2019-05-30T23:27:41.964Z,2.20
2019-05-30T23:30:09.568Z,1.97
2019-05-30T23:32:36.052Z,2.17
2019-05-30T23:35:02.956Z,2.33
2019-05-30T23:37:29.419Z,2.03
2019-05-30T23:39:56.801Z,1.70
2019-05-30T23:42:23.486Z,2.03
2019-05-30T23:44:51.196Z,1.50
2019-05-30T23:47:17.824Z,1.70
2019-05-30T23:49:44.225Z,1.60
2019-05-30T23:52:10.629Z,1.60
2019-05-30T23:54:37.121Z,1.60
2019-05-30T23:57:03.729Z,1.57
2019-05-30T23:59:30.307Z,1.67
